Time;durP1;ratioP1;P1;durP2;ratioP2;P2;SDS_P1;SDS_P2;PMS_P1;PMS_P2;Temp;Humidity;BMP_temperature;BMP_pressure;BME280_temperature;BME280_humidity;BME280_pressure;Samples;Min_cycle;Max_cycle;Signal;HPM_P1;HPM_P2
2024/03/04 00:01:05;;;;;;;;;;;;;;;10.09;100.00;98618.81;5101774;28;19931;-79
2024/03/04 00:03:32;;;;;;;;;;;;;;;10.09;100.00;98618.81;5095766;28;19916;-80
2024/03/04 00:05:58;;;;;;;;;;;;;;;10.11;100.00;98613.63;5094544;28;20003;-80
2024/03/04 00:08:23;;;;;;;;;;;;;;;10.12;100.00;98620.72;5095486;28;20125;-81
2024/03/04 00:10:49;;;;;;;;;;;;;;;10.06;100.00;98616.94;5094109;28;19927;-79
2024/03/04 00:13:14;;;;;;;;;;;;;;;10.08;100.00;98617.25;5114593;28;20433;-79
2024/03/04 00:15:39;;;;;;;;;;;;;;;10.14;100.00;98615.50;5114677;28;19923;-81
2024/03/04 00:18:05;;;;;;;;;;;;;;;10.17;100.00;98620.22;5107666;28;20397;-80
2024/03/04 00:20:30;;;;;;;;;;;;;;;10.19;100.00;98620.53;5107711;28;20400;-80
2024/03/04 00:22:56;;;;;;;;;;;;;;;10.27;100.00;98613.63;5113947;28;19927;-80
2024/03/04 00:25:21;;;;;;;;;;;;;;;10.26;100.00;98622.31;5101796;28;19920;-79
2024/03/04 00:27:51;;;;;;;;;;;;;;;10.28;100.00;98628.19;5095405;28;20305;-80
2024/03/04 00:30:16;;;;;;;;;;;;;;;10.27;100.00;98612.84;5094180;28;19985;-80
2024/03/04 00:32:42;;;;;;;;;;;;;;;10.25;100.00;98612.50;5108891;28;19920;-81
2024/03/04 00:35:09;;;;;;;;;;;;;;;10.27;100.00;98608.09;5093901;28;19924;-79
2024/03/04 00:37:35;;;;;;;;;;;;;;;10.27;100.00;98616.38;5099996;28;19923;-80
2024/03/04 00:40:02;;;;;;;;;;;;;;;10.26;100.00;98603.78;5100604;28;19920;-80
2024/03/04 00:42:27;;;;;;;;;;;;;;;10.26;100.00;98608.50;5107475;28;20389;-79
2024/03/04 00:44:53;;;;;;;;;;;;;;;10.25;100.00;98598.72;5093508;28;19920;-79
2024/03/04 00:47:19;;;;;;;;;;;;;;;10.18;100.00;98596.91;5107326;28;19972;-79
2024/03/04 00:49:47;;;;;;;;;;;;;;;10.15;100.00;98598.53;5093644;28;19916;-79
2024/03/04 00:52:13;;;;;;;;;;;;;;;10.20;100.00;98605.53;5112275;28;19919;-81
2024/03/04 00:54:38;;;;;;;;;;;;;;;10.25;100.00;98604.97;5100439;28;20296;-79
2024/03/04 00:57:04;;;;;;;;;;;;;;;10.23;100.00;98596.38;5113902;28;19922;-79
2024/03/04 00:59:30;;;;;;;;;;;;;;;10.15;100.00;98597.75;5100272;28;19923;-79
2024/03/04 01:01:56;;;;;;;;;;;;;;;10.07;100.00;98599.13;5101622;28;19962;-80
2024/03/04 01:04:21;;;;;;;;;;;;;;;10.03;100.00;98596.47;5113270;28;19920;-79
2024/03/04 01:06:51;;;;;;;;;;;;;;;9.99;100.00;98589.50;5113448;28;20385;-80
2024/03/04 01:09:17;;;;;;;;;;;;;;;9.95;100.00;98599.84;5112814;28;19920;-80
2024/03/04 01:11:42;;;;;;;;;;;;;;;9.96;100.00;98602.19;5093208;28;20333;-80
2024/03/04 01:14:07;;;;;;;;;;;;;;;9.90;100.00;98589.34;5106836;28;20411;-79
2024/03/04 01:16:33;;;;;;;;;;;;;;;9.90;100.00;98592.88;5113222;28;19922;-80
2024/03/04 01:18:59;;;;;;;;;;;;;;;9.90;100.00;98586.59;5099544;28;19928;-80
2024/03/04 01:21:24;;;;;;;;;;;;;;;9.94;100.00;98592.81;5112386;28;20381;-79
2024/03/04 01:23:51;;;;;;;;;;;;;;;9.87;100.00;98596.53;5100119;28;19920;-80
2024/03/04 01:26:16;;;;;;;;;;;;;;;9.89;100.00;98607.88;5106794;28;20722;-79
2024/03/04 01:28:41;;;;;;;;;;;;;;;9.95;100.00;98600.63;5092822;28;19920;-79
2024/03/04 01:31:07;;;;;;;;;;;;;;;9.95;100.00;98599.84;5092394;28;19947;-80
2024/03/04 01:33:33;;;;;;;;;;;;;;;9.92;100.00;98612.56;5105519;28;19916;-80
2024/03/04 01:36:00;;;;;;;;;;;;;;;9.98;100.00;98608.06;5113923;28;20365;-79
2024/03/04 01:38:26;;;;;;;;;;;;;;;10.01;100.00;98611.91;5100371;28;19912;-81
2024/03/04 01:40:51;;;;;;;;;;;;;;;10.02;100.00;98608.72;5113714;28;19919;-81
2024/03/04 01:43:18;;;;;;;;;;;;;;;10.06;100.00;98606.66;5114196;28;19911;-80
2024/03/04 01:45:43;;;;;;;;;;;;;;;10.06;100.00;98603.91;5099262;28;19911;-81
2024/03/04 01:48:09;;;;;;;;;;;;;;;10.03;100.00;98606.75;5113041;28;20357;-80
2024/03/04 01:50:35;;;;;;;;;;;;;;;9.94;100.00;98598.31;5112726;28;19918;-80
2024/03/04 01:53:02;;;;;;;;;;;;;;;9.99;100.00;98606.84;5112939;28;20372;-80
2024/03/04 01:55:30;;;;;;;;;;;;;;;10.04;100.00;98608.31;5109765;28;19927;-79
2024/03/04 01:57:56;;;;;;;;;;;;;;;10.04;100.00;98606.31;5092402;28;19920;-78
2024/03/04 02:00:23;;;;;;;;;;;;;;;10.02;100.00;98605.97;5092402;28;19916;-80
2024/03/04 02:02:49;;;;;;;;;;;;;;;10.03;100.00;98601.22;5105888;28;19968;-81
2024/03/04 02:05:14;;;;;;;;;;;;;;;10.05;100.00;98604.34;5100286;28;19923;-81
2024/03/04 02:07:40;;;;;;;;;;;;;;;9.99;100.00;98595.81;5113391;28;20035;-78
2024/03/04 02:10:06;;;;;;;;;;;;;;;9.96;100.00;98601.41;5112410;28;19924;-81
2024/03/04 02:12:32;;;;;;;;;;;;;;;9.98;100.00;98599.00;5112626;28;19916;-80
2024/03/04 02:14:59;;;;;;;;;;;;;;;9.97;100.00;98600.19;5091994;28;19920;-80
2024/03/04 02:17:25;;;;;;;;;;;;;;;9.96;100.00;98607.72;5091647;28;20011;-81
2024/03/04 02:19:50;;;;;;;;;;;;;;;9.95;100.00;98599.84;5091717;28;20010;-79
2024/03/04 02:22:17;;;;;;;;;;;;;;;9.93;100.00;98602.28;5091225;28;19934;-80
2024/03/04 02:24:42;;;;;;;;;;;;;;;9.96;100.00;98606.94;5112065;28;20363;-80
2024/03/04 02:27:07;;;;;;;;;;;;;;;9.99;100.00;98600.56;5099268;28;20436;-79
2024/03/04 02:29:33;;;;;;;;;;;;;;;10.01;100.00;98603.63;5091623;28;20403;-80
2024/03/04 02:31:59;;;;;;;;;;;;;;;9.97;100.00;98602.97;5105155;28;19981;-79
2024/03/04 02:34:24;;;;;;;;;;;;;;;9.98;100.00;98596.25;5091231;28;20357;-81
2024/03/04 02:36:50;;;;;;;;;;;;;;;9.99;100.00;98595.03;5106319;28;19920;-79
2024/03/04 02:39:16;;;;;;;;;;;;;;;9.95;100.00;98594.34;5099760;28;20389;-80
2024/03/04 02:41:41;;;;;;;;;;;;;;;9.95;100.00;98600.63;5097991;28;20430;-80
2024/03/04 02:44:07;;;;;;;;;;;;;;;9.97;100.00;98598.22;5104534;28;20006;-80
2024/03/04 02:46:32;;;;;;;;;;;;;;;9.98;100.00;98601.75;5091210;28;20015;-80
2024/03/04 02:48:58;;;;;;;;;;;;;;;9.91;100.00;98607.47;5111297;28;19956;-79
2024/03/04 02:51:23;;;;;;;;;;;;;;;9.90;100.00;98603.16;5099390;28;19999;-79
2024/03/04 02:53:48;;;;;;;;;;;;;;;9.95;100.00;98600.63;5104396;28;19923;-79
2024/03/04 02:56:14;;;;;;;;;;;;;;;9.93;100.00;98603.06;5106032;28;19926;-79
2024/03/04 02:58:39;;;;;;;;;;;;;;;9.93;100.00;98597.56;5097798;28;20409;-80
2024/03/04 03:01:04;;;;;;;;;;;;;;;9.93;100.00;98602.28;5111301;28;19951;-79
2024/03/04 03:03:29;;;;;;;;;;;;;;;9.89;100.00;98607.09;5098723;28;19920;-79
2024/03/04 03:05:55;;;;;;;;;;;;;;;9.92;100.00;98604.28;5111970;28;19916;-82
2024/03/04 03:08:20;;;;;;;;;;;;;;;9.92;100.00;98603.50;5097899;28;19916;-80
2024/03/04 03:10:46;;;;;;;;;;;;;;;9.90;100.00;98597.63;5098495;28;19963;-79
2024/03/04 03:13:12;;;;;;;;;;;;;;;9.93;100.00;98607.81;5091127;28;19956;-82
2024/03/04 03:15:37;;;;;;;;;;;;;;;9.94;100.00;98614.88;5090642;28;19955;-80
2024/03/04 03:18:03;;;;;;;;;;;;;;;9.94;100.00;98612.13;5111008;28;20452;-81
2024/03/04 03:20:28;;;;;;;;;;;;;;;9.89;100.00;98612.63;5098646;28;19927;-81
2024/03/04 03:22:53;;;;;;;;;;;;;;;9.89;100.00;98618.16;5105550;28;19928;-80
2024/03/04 03:25:18;;;;;;;;;;;;;;;9.86;100.00;98619.81;5091078;28;19916;-81
2024/03/04 03:27:44;;;;;;;;;;;;;;;9.85;100.00;98623.00;5109659;28;19970;-80
2024/03/04 03:30:10;;;;;;;;;;;;;;;9.63;100.00;98626.31;5099109;28;19924;-80
2024/03/04 03:32:38;;;;;;;;;;;;;;;9.55;100.00;98627.66;5090859;28;19924;-81
2024/03/04 03:35:04;;;;;;;;;;;;;;;9.57;100.00;98618.97;5091114;28;20302;-81
2024/03/04 03:37:29;;;;;;;;;;;;;;;9.50;100.00;98625.44;5096684;28;19911;-79
2024/03/04 03:39:54;;;;;;;;;;;;;;;9.51;100.00;98627.00;5100619;28;19916;-80
2024/03/04 03:42:19;;;;;;;;;;;;;;;9.44;100.00;98621.66;5090824;28;19912;-82
2024/03/04 03:44:45;;;;;;;;;;;;;;;9.33;100.00;98630.19;5090587;28;19916;-80
2024/03/04 03:47:10;;;;;;;;;;;;;;;9.25;100.00;98628.00;5095267;28;20377;-82
2024/03/04 03:49:35;;;;;;;;;;;;;;;9.22;100.00;98639.91;5110716;28;19963;-80
2024/03/04 03:52:01;;;;;;;;;;;;;;;9.19;100.00;98621.44;5107086;28;20043;-80
2024/03/04 03:54:26;;;;;;;;;;;;;;;9.14;100.00;98622.75;5102844;28;20357;-80
2024/03/04 03:56:51;;;;;;;;;;;;;;;8.97;100.00;98621.16;5110397;28;19927;-81
2024/03/04 03:59:16;;;;;;;;;;;;;;;8.87;100.00;98631.19;5099954;28;19974;-80
2024/03/04 04:01:42;;;;;;;;;;;;;;;8.78;100.00;98628.25;5095073;28;19915;-80
2024/03/04 04:04:07;;;;;;;;;;;;;;;8.61;100.00;98631.38;5110928;28;19919;-80
2024/03/04 04:06:32;;;;;;;;;;;;;;;8.54;100.00;98630.31;5110696;28;19941;-82
2024/03/04 04:08:58;;;;;;;;;;;;;;;8.42;100.00;98638.44;5100659;28;19947;-81
2024/03/04 04:11:23;;;;;;;;;;;;;;;8.41;100.00;98636.88;5090617;28;19916;-82
2024/03/04 04:13:48;;;;;;;;;;;;;;;8.44;100.00;98633.28;5101290;28;20368;-82
2024/03/04 04:16:13;;;;;;;;;;;;;;;8.50;100.00;98637.09;5093174;28;19923;-80
2024/03/04 04:18:40;;;;;;;;;;;;;;;8.51;100.00;98633.13;5090624;28;20316;-79
2024/03/04 04:21:09;;;;;;;;;;;;;;;8.54;100.00;98633.09;5095895;28;19920;-80
2024/03/04 04:23:34;;;;;;;;;;;;;;;8.53;100.00;98628.00;5099621;28;19969;-81
2024/03/04 04:26:00;;;;;;;;;;;;;;;8.51;100.00;98631.16;5109607;28;19915;-80
2024/03/04 04:28:25;;;;;;;;;;;;;;;8.52;100.00;98634.69;5114671;28;19923;-80
2024/03/04 04:30:51;;;;;;;;;;;;;;;8.44;100.00;98644.28;5109984;28;20330;-81
2024/03/04 04:33:17;;;;;;;;;;;;;;;8.41;100.00;98642.41;5094081;28;19920;-81
2024/03/04 04:35:43;;;;;;;;;;;;;;;8.37;100.00;98636.97;5111944;28;20419;-80
2024/03/04 04:38:08;;;;;;;;;;;;;;;8.34;100.00;98650.78;5103460;28;19916;-80
2024/03/04 04:40:33;;;;;;;;;;;;;;;8.29;100.00;98643.78;5111141;28;20428;-80
2024/03/04 04:42:58;;;;;;;;;;;;;;;8.29;100.00;98643.78;5114253;28;19975;-80
2024/03/04 04:45:26;;;;;;;;;;;;;;;8.30;100.00;98647.31;5110679;28;19939;-80
2024/03/04 04:47:51;;;;;;;;;;;;;;;8.28;100.00;98646.94;5105251;28;19955;-81
2024/03/04 04:50:16;;;;;;;;;;;;;;;8.33;100.00;98643.72;5097287;28;19927;-80
2024/03/04 04:52:42;;;;;;;;;;;;;;;8.25;100.00;98645.81;5105343;28;19916;-80
2024/03/04 04:55:07;;;;;;;;;;;;;;;8.24;100.00;98651.75;5114178;28;20045;-80
2024/03/04 04:57:32;;;;;;;;;;;;;;;8.08;100.00;98655.16;5114137;28;19990;-80
2024/03/04 04:59:57;;;;;;;;;;;;;;;8.09;100.00;98648.47;5110486;28;20390;-81
2024/03/04 05:02:23;;;;;;;;;;;;;;;8.12;100.00;98659.44;5104575;28;19919;-81
2024/03/04 05:04:48;;;;;;;;;;;;;;;8.21;100.00;98658.84;5097284;28;19916;-82
2024/03/04 05:07:14;;;;;;;;;;;;;;;8.25;100.00;98662.34;5093726;28;20011;-81
2024/03/04 05:09:42;;;;;;;;;;;;;;;8.33;100.00;98660.25;5093437;28;19924;-82
2024/03/04 05:12:10;;;;;;;;;;;;;;;8.42;100.00;98660.47;5104524;28;19916;-81
2024/03/04 05:14:36;;;;;;;;;;;;;;;8.46;100.00;98664.69;5113191;28;19920;-80
2024/03/04 05:17:02;;;;;;;;;;;;;;;8.55;100.00;98673.19;5113774;28;19919;-81
2024/03/04 05:19:34;;;;;;;;;;;;;;;8.65;100.00;98687.94;5100003;28;19916;-80
2024/03/04 05:22:00;;;;;;;;;;;;;;;8.45;100.00;98684.38;5102317;28;19927;-81
2024/03/04 05:24:25;;;;;;;;;;;;;;;8.30;100.00;98688.59;5098050;28;19923;-80
2024/03/04 05:26:50;;;;;;;;;;;;;;;8.15;100.00;98694.34;5104046;27;19916;-80
2024/03/04 05:29:15;;;;;;;;;;;;;;;8.06;100.00;98705.13;5093999;28;19935;-80
2024/03/04 05:31:51;;;;;;;;;;;;;;;8.03;100.00;98705.16;5104466;28;19988;-81
2024/03/04 05:34:19;;;;;;;;;;;;;;;8.07;100.00;98712.19;5096713;28;19924;-80
2024/03/04 05:36:45;;;;;;;;;;;;;;;8.09;100.00;98709.78;5104140;28;19916;-80
2024/03/04 05:39:10;;;;;;;;;;;;;;;8.14;100.00;98714.00;5099113;28;19923;-80
2024/03/04 05:41:37;;;;;;;;;;;;;;;8.20;100.00;98711.59;5114642;28;20006;-79
2024/03/04 05:44:02;;;;;;;;;;;;;;;8.31;100.00;98704.72;5110187;28;20380;-79
2024/03/04 05:46:28;;;;;;;;;;;;;;;8.60;100.00;98707.72;5092684;28;19912;-79
2024/03/04 05:48:53;;;;;;;;;;;;;;;8.69;100.00;98709.88;5092643;28;19965;-80
2024/03/04 05:51:18;;;;;;;;;;;;;;;8.90;100.00;98709.47;5092644;28;19912;-78
2024/03/04 05:53:44;;;;;;;;;;;;;;;9.10;100.00;98701.19;5093854;28;19973;-81
2024/03/04 05:56:09;;;;;;;;;;;;;;;9.18;100.00;98703.34;5092631;28;20300;-78
2024/03/04 05:58:37;;;;;;;;;;;;;;;9.14;100.00;98704.66;5092433;28;19966;-82
2024/03/04 06:01:02;;;;;;;;;;;;;;;9.35;100.00;98706.94;5102395;28;20002;-82
2024/03/04 06:03:28;;;;;;;;;;;;;;;9.67;100.00;98709.75;5112009;28;19961;-78
2024/03/04 06:05:53;;;;;;;;;;;;;;;9.61;100.00;98714.22;5112281;28;19912;-80
2024/03/04 06:08:19;;;;;;;;;;;;;;;9.85;100.00;98714.06;5112380;28;19927;-81
2024/03/04 06:10:44;;;;;;;;;;;;;;;10.07;100.00;98713.09;5112693;28;19919;-81
2024/03/04 06:13:09;;;;;;;;;;;;;;;10.23;100.00;98704.06;5098351;28;20007;-82
2024/03/04 06:15:35;;;;;;;;;;;;;;;10.36;100.00;98706.88;5112387;28;20305;-81
2024/03/04 06:18:00;;;;;;;;;;;;;;;10.33;100.00;98707.75;5097584;28;20320;-80
2024/03/04 06:20:25;;;;;;;;;;;;;;;10.35;100.00;98706.09;5103983;28;19916;-80
2024/03/04 06:22:51;;;;;;;;;;;;;;;10.11;100.00;98707.50;5099299;28;19930;-81
2024/03/04 06:25:16;;;;;;;;;;;;;;;9.86;100.00;98699.84;5099694;28;19916;-81
2024/03/04 06:27:41;;;;;;;;;;;;;;;9.79;100.00;98706.28;5091858;28;19970;-80
2024/03/04 06:30:11;;;;;;;;;;;;;;;9.73;100.00;98708.00;5106553;28;20367;-79
2024/03/04 06:32:36;;;;;;;;;;;;;;;9.98;100.00;98714.91;5103088;28;19911;-79
2024/03/04 06:35:01;;;;;;;;;;;;;;;10.22;100.00;98716.31;5109820;28;20360;-80
2024/03/04 06:37:26;;;;;;;;;;;;;;;9.82;100.00;98705.41;5091988;28;19995;-80
2024/03/04 06:39:52;;;;;;;;;;;;;;;9.80;100.00;98704.31;5091675;28;20450;-80
2024/03/04 06:42:17;;;;;;;;;;;;;;;10.26;100.00;98708.69;5102670;28;19911;-81
2024/03/04 06:44:42;;;;;;;;;;;;;;;10.35;100.00;98706.09;5109265;28;19916;-79
2024/03/04 06:47:07;;;;;;;;;;;;;;;10.44;100.00;98697.19;5100814;28;19919;-80
2024/03/04 06:49:33;;;;;;;;;;;;;;;10.60;100.00;98703.47;5096178;28;19912;-80
2024/03/04 06:51:58;;;;;;;;;;;;;;;10.58;100.00;98707.84;5090603;28;19912;-80
2024/03/04 06:54:24;;;;;;;;;;;;;;;10.70;100.00;98709.91;5093165;28;20411;-80
2024/03/04 06:56:49;;;;;;;;;;;;;;;10.46;100.00;98720.41;5103261;28;19912;-79
2024/03/04 06:59:14;;;;;;;;;;;;;;;11.08;100.00;98717.53;5098243;28;19915;-80
2024/03/04 07:01:40;;;;;;;;;;;;;;;11.55;100.00;98710.16;5105513;28;20392;-81
2024/03/04 07:04:06;;;;;;;;;;;;;;;11.82;96.60;98713.25;5095703;28;19920;-79
2024/03/04 07:06:31;;;;;;;;;;;;;;;11.31;95.94;98712.47;5102852;28;19970;-81
2024/03/04 07:08:57;;;;;;;;;;;;;;;11.18;96.75;98711.69;5090432;28;20340;-81
2024/03/04 07:11:22;;;;;;;;;;;;;;;11.45;95.70;98713.25;5090391;28;19922;-80
2024/03/04 07:13:48;;;;;;;;;;;;;;;10.92;97.90;98715.59;5105438;28;19916;-81
2024/03/04 07:16:15;;;;;;;;;;;;;;;11.17;96.86;98721.19;5099422;28;19947;-81
2024/03/04 07:18:40;;;;;;;;;;;;;;;11.37;95.72;98721.78;5093552;28;19912;-79
2024/03/04 07:21:06;;;;;;;;;;;;;;;11.51;94.26;98728.09;5092274;28;19926;-82
2024/03/04 07:23:31;;;;;;;;;;;;;;;11.47;95.93;98724.66;5098186;28;19923;-79
2024/03/04 07:25:56;;;;;;;;;;;;;;;11.56;94.63;98728.31;5089845;28;20316;-79
2024/03/04 07:28:22;;;;;;;;;;;;;;;10.95;96.40;98726.56;5089112;28;19916;-81
2024/03/04 07:30:49;;;;;;;;;;;;;;;11.40;97.95;98736.69;5103594;28;19923;-81
2024/03/04 07:33:14;;;;;;;;;;;;;;;11.11;96.51;98731.22;5100394;28;19920;-78
2024/03/04 07:35:39;;;;;;;;;;;;;;;11.23;97.61;98733.25;5107394;28;19942;-80
2024/03/04 07:38:08;;;;;;;;;;;;;;;11.60;96.79;98728.19;5100166;28;19922;-79
2024/03/04 07:40:33;;;;;;;;;;;;;;;11.82;95.51;98731.88;5093276;28;20397;-81
2024/03/04 07:42:59;;;;;;;;;;;;;;;12.14;93.21;98726.06;5100519;28;19912;-80
2024/03/04 07:45:25;;;;;;;;;;;;;;;12.64;90.44;98733.47;5096745;28;20026;-79
2024/03/04 07:47:51;;;;;;;;;;;;;;;12.91;86.55;98735.66;5101802;28;19956;-80
2024/03/04 07:50:16;;;;;;;;;;;;;;;12.83;85.61;98739.94;5103615;28;20316;-80
2024/03/04 07:52:41;;;;;;;;;;;;;;;13.13;85.18;98732.94;5101249;28;19965;-78
2024/03/04 07:55:09;;;;;;;;;;;;;;;12.91;83.69;98737.66;5093209;28;19970;-79
2024/03/04 07:57:34;;;;;;;;;;;;;;;13.07;84.69;98728.41;5090184;28;19916;-79
2024/03/04 07:59:59;;;;;;;;;;;;;;;12.92;83.44;98740.00;5103487;28;19918;-79
2024/03/04 08:02:25;;;;;;;;;;;;;;;12.91;83.91;98735.66;5102203;28;19912;-79
2024/03/04 08:04:50;;;;;;;;;;;;;;;13.26;83.35;98724.53;5097293;28;19913;-79
2024/03/04 08:07:15;;;;;;;;;;;;;;;13.32;83.88;98728.28;5093983;28;20426;-80
2024/03/04 08:09:41;;;;;;;;;;;;;;;13.43;81.68;98723.09;5095158;28;19912;-79
2024/03/04 08:12:08;;;;;;;;;;;;;;;13.33;81.56;98713.16;5095011;28;19912;-79
2024/03/04 08:14:33;;;;;;;;;;;;;;;13.20;82.03;98723.59;5093899;28;19923;-80
2024/03/04 08:16:58;;;;;;;;;;;;;;;13.02;83.27;98713.09;5103681;28;20088;-81
2024/03/04 08:19:24;;;;;;;;;;;;;;;12.43;87.08;98717.56;5097027;28;19912;-79
2024/03/04 08:21:49;;;;;;;;;;;;;;;12.21;88.85;98714.00;5104486;28;20004;-79
2024/03/04 08:24:15;;;;;;;;;;;;;;;12.16;90.86;98715.34;5100012;28;19915;-81
2024/03/04 08:26:40;;;;;;;;;;;;;;;12.71;87.96;98718.59;5104013;28;20015;-79
2024/03/04 08:29:05;;;;;;;;;;;;;;;12.80;86.67;98710.34;5096349;28;19935;-78
2024/03/04 08:31:31;;;;;;;;;;;;;;;12.85;86.62;98708.97;5113609;28;19912;-81
2024/03/04 08:33:56;;;;;;;;;;;;;;;13.11;86.38;98709.59;5110468;28;19920;-78
2024/03/04 08:36:22;;;;;;;;;;;;;;;12.58;85.82;98715.88;5093514;28;19916;-80
2024/03/04 08:38:50;;;;;;;;;;;;;;;12.58;87.14;98720.63;5109819;28;19916;-79
2024/03/04 08:41:16;;;;;;;;;;;;;;;12.45;87.28;98717.13;5114811;28;19912;-78
2024/03/04 08:43:41;;;;;;;;;;;;;;;12.47;87.64;98714.69;5113681;28;19964;-78
2024/03/04 08:46:10;;;;;;;;;;;;;;;12.83;86.15;98715.00;5105088;28;19920;-79
2024/03/04 08:48:35;;;;;;;;;;;;;;;12.80;84.36;98704.00;5096681;28;20446;-82
2024/03/04 08:51:00;;;;;;;;;;;;;;;12.32;88.02;98713.63;5113546;28;19915;-81
2024/03/04 08:53:26;;;;;;;;;;;;;;;12.63;87.74;98708.97;5097851;27;19920;-80
2024/03/04 08:55:53;;;;;;;;;;;;;;;12.81;86.83;98703.56;5104188;28;20006;-79
2024/03/04 08:58:19;;;;;;;;;;;;;;;12.58;86.47;98704.78;5113184;28;19965;-81
2024/03/04 09:00:44;;;;;;;;;;;;;;;12.27;89.71;98703.13;5113270;28;20365;-80
2024/03/04 09:03:09;;;;;;;;;;;;;;;12.81;86.66;98697.25;5096416;28;19919;-78
2024/03/04 09:05:35;;;;;;;;;;;;;;;13.20;87.46;98695.84;5093090;28;19912;-79
2024/03/04 09:08:03;;;;;;;;;;;;;;;13.41;81.67;98697.78;5106543;28;19947;-80
2024/03/04 09:10:29;;;;;;;;;;;;;;;14.07;77.76;98693.53;5104232;28;19916;-81
2024/03/04 09:12:55;;;;;;;;;;;;;;;14.14;76.40;98698.03;5108926;28;19986;-79
2024/03/04 09:15:21;;;;;;;;;;;;;;;14.02;77.53;98694.13;5092497;28;20310;-79
2024/03/04 09:17:46;;;;;;;;;;;;;;;14.56;76.31;98693.47;5096091;28;19938;-79
2024/03/04 09:20:11;;;;;;;;;;;;;;;14.36;74.55;98692.31;5104556;28;19916;-81
2024/03/04 09:22:37;;;;;;;;;;;;;;;14.06;78.10;98693.97;5095440;28;20392;-80
2024/03/04 09:25:04;;;;;;;;;;;;;;;14.00;76.27;98690.25;5112786;28;19935;-79
2024/03/04 09:27:30;;;;;;;;;;;;;;;13.69;76.21;98690.31;5109289;28;19916;-80
2024/03/04 09:29:56;;;;;;;;;;;;;;;13.75;76.06;98688.50;5094010;28;19966;-81
2024/03/04 09:32:21;;;;;;;;;;;;;;;13.48;79.35;98691.19;5093597;28;19916;-79
2024/03/04 09:34:46;;;;;;;;;;;;;;;13.53;79.93;98693.34;5103863;28;20451;-79
2024/03/04 09:37:12;;;;;;;;;;;;;;;13.10;81.80;98683.88;5097231;28;19920;-79
2024/03/04 09:39:38;;;;;;;;;;;;;;;12.43;84.89;98695.41;5092511;28;19916;-78
2024/03/04 09:42:03;;;;;;;;;;;;;;;12.36;89.35;98692.88;5108895;28;19922;-79
2024/03/04 09:44:30;;;;;;;;;;;;;;;12.46;90.10;98686.22;5113555;28;19912;-79
2024/03/04 09:46:58;;;;;;;;;;;;;;;12.85;86.92;98681.25;5110236;28;19912;-79
2024/03/04 09:49:24;;;;;;;;;;;;;;;12.83;88.90;98681.72;5093260;28;19944;-79
2024/03/04 09:51:50;;;;;;;;;;;;;;;13.00;86.37;98680.28;5110438;28;19915;-79
2024/03/04 09:54:16;;;;;;;;;;;;;;;13.55;83.99;98675.03;5113145;28;19938;-79
2024/03/04 09:56:41;;;;;;;;;;;;;;;13.76;79.83;98685.28;5098286;28;20377;-80
2024/03/04 09:59:06;;;;;;;;;;;;;;;13.88;78.78;98682.81;5103773;28;20006;-79
2024/03/04 10:01:32;;;;;;;;;;;;;;;13.91;77.78;98679.91;5092011;28;19912;-80
2024/03/04 10:03:58;;;;;;;;;;;;;;;14.08;77.83;98683.97;5093457;28;20403;-80
2024/03/04 10:06:23;;;;;;;;;;;;;;;13.83;77.55;98684.22;5094371;28;19919;-79
2024/03/04 10:08:48;;;;;;;;;;;;;;;14.39;77.32;98683.88;5113395;28;19923;-81
2024/03/04 10:11:14;;;;;;;;;;;;;;;14.54;74.42;98676.47;5098099;28;20400;-80
2024/03/04 10:13:40;;;;;;;;;;;;;;;14.19;73.59;98666.84;5112009;28;19916;-78
2024/03/04 10:16:09;;;;;;;;;;;;;;;13.79;76.99;98670.47;5112850;28;19912;-79
2024/03/04 10:18:34;;;;;;;;;;;;;;;13.62;77.50;98674.72;5111763;28;19951;-79
2024/03/04 10:20:59;;;;;;;;;;;;;;;14.08;76.82;98670.06;5108701;28;20369;-81
2024/03/04 10:23:24;;;;;;;;;;;;;;;14.15;77.64;98666.22;5102963;28;19920;-80
2024/03/04 10:26:07;;;;;;;;;;;;;;;14.22;74.38;98657.59;5094917;28;19927;-82
2024/03/04 10:28:39;;;;;;;;;;;;;;;14.23;76.50;98659.88;5103638;28;19930;-80
2024/03/04 10:31:09;;;;;;;;;;;;;;;14.79;70.84;98660.69;5091722;28;20011;-80
2024/03/04 10:33:34;;;;;;;;;;;;;;;14.72;72.58;98655.44;5091313;28;19952;-80
2024/03/04 10:36:21;;;;;;;;;;;;;;;14.93;68.98;98658.03;5111739;28;19951;-79
2024/03/04 10:38:47;;;;;;;;;;;;;;;15.00;68.47;98651.38;5108221;28;19916;-80
2024/03/04 10:41:20;;;;;;;;;;;;;;;14.92;67.67;98656.50;5091244;28;19923;-81
2024/03/04 10:43:45;;;;;;;;;;;;;;;15.33;68.59;98651.41;5095688;28;19911;-79
2024/03/04 10:46:11;;;;;;;;;;;;;;;15.26;66.67;98646.19;5112060;28;19912;-78
2024/03/04 10:48:44;;;;;;;;;;;;;;;15.16;67.73;98634.31;5105109;27;19920;-81
2024/03/04 10:51:09;;;;;;;;;;;;;;;15.18;68.67;98636.63;5103577;28;20396;-79
2024/03/04 10:53:35;;;;;;;;;;;;;;;15.28;68.08;98638.13;5103888;28;19923;-79
2024/03/04 10:56:07;;;;;;;;;;;;;;;14.93;68.78;98624.66;5113576;28;19919;-80
2024/03/04 10:58:33;;;;;;;;;;;;;;;14.83;69.29;98625.91;5105094;28;20320;-80
2024/03/04 11:01:00;;;;;;;;;;;;;;;14.48;72.44;98621.94;5102482;28;19920;-80
2024/03/04 11:03:27;;;;;;;;;;;;;;;14.73;70.56;98626.38;5096891;28;19947;-78
2024/03/04 11:05:52;;;;;;;;;;;;;;;14.64;70.66;98624.41;5102705;28;20011;-80
2024/03/04 11:08:35;;;;;;;;;;;;;;;14.71;70.03;98620.53;5107192;28;19958;-79
2024/03/04 11:11:13;;;;;;;;;;;;;;;14.57;70.56;98624.72;5091327;28;19923;-78
2024/03/04 11:13:49;;;;;;;;;;;;;;;14.64;71.92;98614.06;5098413;28;19916;-77
2024/03/04 11:16:19;;;;;;;;;;;;;;;15.03;67.75;98609.47;5110257;28;19939;-81
2024/03/04 11:18:44;;;;;;;;;;;;;;;15.07;67.51;98603.72;5091596;28;19923;-82
2024/03/04 11:21:10;;;;;;;;;;;;;;;14.78;68.23;98597.94;5109651;28;19919;-79
2024/03/04 11:23:36;;;;;;;;;;;;;;;14.94;67.89;98592.03;5112511;28;19922;-80
2024/03/04 11:26:02;;;;;;;;;;;;;;;15.31;66.19;98596.22;5108024;28;19916;-79
2024/03/04 11:28:27;;;;;;;;;;;;;;;15.29;68.51;98590.34;5091102;28;19916;-78
2024/03/04 11:30:54;;;;;;;;;;;;;;;14.98;67.08;98592.63;5094900;28;19923;-79
2024/03/04 11:33:38;;;;;;;;;;;;;;;15.03;69.14;98590.00;5111275;28;19958;-78
2024/03/04 11:36:04;;;;;;;;;;;;;;;15.54;64.52;98586.41;5097358;28;19916;-80
2024/03/04 11:38:29;;;;;;;;;;;;;;;15.66;65.18;98584.63;5112426;28;20277;-81
2024/03/04 11:40:58;;;;;;;;;;;;;;;16.07;63.28;98580.94;5112433;28;19968;-83
2024/03/04 11:43:42;;;;;;;;;;;;;;;15.74;63.16;98588.59;5110419;28;20123;-79
2024/03/04 11:46:11;;;;;;;;;;;;;;;15.32;63.78;98577.50;5090535;28;19920;-78
2024/03/04 11:48:36;;;;;;;;;;;;;;;15.03;66.75;98573.28;5094449;28;19915;-78
2024/03/04 11:51:02;;;;;;;;;;;;;;;14.90;67.80;98564.38;5110915;28;19916;-81
2024/03/04 11:53:28;;;;;;;;;;;;;;;14.77;64.15;98563.06;5107438;28;19924;-82
2024/03/04 11:55:54;;;;;;;;;;;;;;;14.78;63.06;98561.78;5091163;28;19973;-81
2024/03/04 11:58:20;;;;;;;;;;;;;;;14.91;63.36;98556.81;5091236;28;19916;-80
2024/03/04 12:00:47;;;;;;;;;;;;;;;14.94;63.77;98547.53;5100867;28;19951;-79
2024/03/04 12:03:14;;;;;;;;;;;;;;;15.41;63.58;98550.41;5110174;28;20305;-81
2024/03/04 12:05:40;;;;;;;;;;;;;;;15.03;65.79;98539.91;5110960;28;20784;-80
2024/03/04 12:08:06;;;;;;;;;;;;;;;15.22;63.90;98542.59;5094340;28;19999;-78
2024/03/04 12:10:33;;;;;;;;;;;;;;;14.31;67.24;98537.31;5090520;28;20442;-79
2024/03/04 12:12:58;;;;;;;;;;;;;;;14.03;67.66;98533.78;5094224;28;19916;-80
2024/03/04 12:15:23;;;;;;;;;;;;;;;14.53;68.86;98526.78;5111809;28;20027;-79
2024/03/04 12:17:48;;;;;;;;;;;;;;;14.92;63.70;98531.31;5095563;28;19920;-81
2024/03/04 12:20:14;;;;;;;;;;;;;;;15.09;62.53;98528.91;5110842;28;20030;-81
2024/03/04 12:22:39;;;;;;;;;;;;;;;15.18;62.46;98523.31;5106924;28;19991;-81
2024/03/04 12:25:09;;;;;;;;;;;;;;;14.77;62.88;98526.91;5100821;28;19916;-81
2024/03/04 12:27:34;;;;;;;;;;;;;;;15.14;62.98;98527.47;5096587;28;20402;-82
2024/03/04 12:30:09;;;;;;;;;;;;;;;15.48;61.20;98525.00;5110454;28;20014;-80
2024/03/04 12:32:35;;;;;;;;;;;;;;;15.41;59.86;98519.78;5110366;28;19916;-81
2024/03/04 12:35:00;;;;;;;;;;;;;;;15.40;60.71;98523.03;5098558;28;20400;-78
2024/03/04 12:37:26;;;;;;;;;;;;;;;14.52;63.93;98522.47;5090074;28;19927;-81
2024/03/04 12:39:52;;;;;;;;;;;;;;;14.48;65.53;98511.50;5092038;28;19924;-79